Time;durP1;ratioP1;P1;durP2;ratioP2;P2;SDS_P1;SDS_P2;PMS_P1;PMS_P2;Temp;Humidity;BMP_temperature;BMP_pressure;BME280_temperature;BME280_humidity;BME280_pressure;Samples;Min_cycle;Max_cycle;Signal;HPM_P1;HPM_P2
2022/06/14 00:00:53;;;;;;;;;6.00;6.00;;;;;-143.57;100.00;65101.44;5100380;27;45355;-47
2022/06/14 00:03:24;;;;;;;;;7.67;6.67;;;;;-143.57;100.00;65101.44;5100414;27;45410;-51
2022/06/14 00:05:50;;;;;;;;;8.00;7.00;;;;;-143.57;100.00;65101.44;5100322;27;46312;-44
2022/06/14 00:08:17;;;;;;;;;8.67;7.00;;;;;-143.57;100.00;65101.44;5100106;27;45369;-47
2022/06/14 00:10:43;;;;;;;;;7.33;6.00;;;;;-143.57;100.00;65101.44;5100106;27;45303;-42
2022/06/14 00:13:10;;;;;;;;;7.00;6.67;;;;;-143.57;100.00;65101.44;5100357;27;45362;-43
2022/06/14 00:15:35;;;;;;;;;4.67;4.67;;;;;-143.57;100.00;65101.44;5099699;27;46440;-44
2022/06/14 00:18:01;;;;;;;;;7.00;5.00;;;;;-143.57;100.00;65101.44;5099862;27;45231;-44
2022/06/14 00:20:26;;;;;;;;;6.33;6.33;;;;;-143.57;100.00;65101.44;5099818;27;45396;-46
2022/06/14 00:22:52;;;;;;;;;6.67;6.67;;;;;-143.57;100.00;65101.44;5100363;27;45257;-47
2022/06/14 00:25:28;;;;;;;;;6.00;6.00;;;;;-143.57;100.00;65101.44;5099914;27;45841;-45
2022/06/14 00:27:53;;;;;;;;;6.00;6.00;;;;;-143.57;100.00;65101.44;5099885;27;45418;-44
2022/06/14 00:30:20;;;;;;;;;6.00;4.67;;;;;-143.57;100.00;65101.44;5100111;27;45315;-46
2022/06/14 00:32:46;;;;;;;;;8.33;5.00;;;;;-143.57;100.00;65101.44;5100021;27;45457;-44
2022/06/14 00:35:13;;;;;;;;;7.00;6.67;;;;;-143.57;100.00;65101.44;5099532;27;45834;-47
2022/06/14 00:37:38;;;;;;;;;5.00;5.00;;;;;-143.57;100.00;65101.44;5099834;27;45190;-48
2022/06/14 00:40:05;;;;;;;;;7.67;6.00;;;;;-143.57;100.00;65101.44;5098599;27;45417;-44
2022/06/14 00:42:32;;;;;;;;;6.00;5.33;;;;;-143.57;100.00;65101.44;5099811;27;45436;-47
2022/06/14 00:45:11;;;;;;;;;5.00;5.00;;;;;-143.57;100.00;65101.44;5099475;27;46276;-45
2022/06/14 00:47:52;;;;;;;;;5.00;4.00;;;;;-143.57;100.00;65101.44;5099319;27;45469;-44
2022/06/14 00:50:29;;;;;;;;;6.33;6.00;;;;;-143.57;100.00;65101.44;5099482;27;45378;-43
2022/06/14 00:53:15;;;;;;;;;4.00;4.00;;;;;-143.57;100.00;65101.44;5099681;27;45383;-49
2022/06/14 00:55:46;;;;;;;;;5.00;5.00;;;;;-143.57;100.00;65101.44;5099119;27;46358;-45
2022/06/14 00:58:39;;;;;;;;;7.67;5.67;;;;;-143.57;100.00;65101.44;5099166;27;45737;-47
2022/06/14 01:01:17;;;;;;;;;6.00;4.00;;;;;-143.57;100.00;65101.44;5016380;28;45195;-43
2022/06/14 01:03:54;;;;;;;;;7.67;4.67;;;;;-143.57;100.00;65101.44;5016546;28;45727;-43
2022/06/14 01:06:29;;;;;;;;;4.00;4.00;;;;;-143.57;100.00;65101.44;5016324;28;46271;-42
2022/06/14 01:09:02;;;;;;;;;8.00;5.67;;;;;-143.57;100.00;65101.44;5016187;28;45481;-51
2022/06/14 01:11:45;;;;;;;;;6.00;4.00;;;;;-143.57;100.00;65101.44;5016092;28;45499;-44
2022/06/14 01:14:15;;;;;;;;;4.33;3.67;;;;;-143.57;100.00;65101.44;5016424;28;45254;-44
2022/06/14 01:16:41;;;;;;;;;8.67;5.00;;;;;-143.57;100.00;65101.44;5016052;28;45440;-45
2022/06/14 01:19:22;;;;;;;;;5.67;4.67;;;;;-143.57;100.00;65101.44;5015536;28;45450;-46
2022/06/14 01:21:52;;;;;;;;;4.33;4.33;;;;;-143.57;100.00;65101.44;5015992;28;45500;-43
2022/06/14 01:24:19;;;;;;;;;7.00;6.00;;;;;-143.57;100.00;65101.44;5016259;28;45570;-49
2022/06/14 01:26:44;;;;;;;;;5.00;5.00;;;;;-143.57;100.00;65101.44;5015315;28;46606;-44
2022/06/14 01:29:10;;;;;;;;;4.00;3.33;;;;;-143.57;100.00;65101.44;5015800;28;45312;-46
2022/06/14 01:31:37;;;;;;;;;5.67;5.00;;;;;-143.57;100.00;65101.44;5015930;28;45392;-45
2022/06/14 01:34:08;;;;;;;;;4.33;4.33;;;;;-143.57;100.00;65101.44;5015965;28;45312;-45
2022/06/14 01:36:39;;;;;;;;;4.00;4.00;;;;;-143.57;100.00;65101.44;5015811;28;46404;-48
2022/06/14 01:39:09;;;;;;;;;4.00;4.00;;;;;-143.57;100.00;65101.44;5094003;27;45437;-44
2022/06/14 01:41:54;;;;;;;;;4.00;4.00;;;;;-143.57;100.00;65101.44;5098886;27;45429;-47
2022/06/14 01:44:41;;;;;;;;;7.33;5.00;;;;;-143.57;100.00;65101.44;5099323;27;45365;-52
2022/06/14 01:47:19;;;;;;;;;4.00;3.00;;;;;-143.57;100.00;65101.44;5098774;27;46198;-49
2022/06/14 01:53:15;;;;;;;;;4.00;4.00;;;;;-143.57;100.00;65101.44;5098668;27;45299;-51
2022/06/14 01:56:03;;;;;;;;;5.00;3.00;;;;;-143.57;100.00;65101.44;5098658;27;45542;-48
2022/06/14 01:58:47;;;;;;;;;5.67;4.00;;;;;-143.57;100.00;65101.44;5098379;27;45452;-45
2022/06/14 02:01:36;;;;;;;;;6.67;4.00;;;;;-143.57;100.00;65101.44;5098346;27;45531;-51
2022/06/14 02:07:32;;;;;;;;;4.33;2.67;;;;;-143.57;100.00;65101.44;5098603;27;45350;-44
2022/06/14 02:10:28;;;;;;;;;3.67;3.67;;;;;-143.57;100.00;65101.44;5097954;27;46485;-45
2022/06/14 02:12:56;;;;;;;;;3.00;3.00;;;;;-143.57;100.00;65101.44;5098372;27;45335;-45
2022/06/14 02:15:30;;;;;;;;;3.00;2.00;;;;;-143.57;100.00;65101.44;5098147;27;45406;-46
2022/06/14 02:18:10;;;;;;;;;4.00;3.67;;;;;-143.57;100.00;65101.44;5098105;27;45498;-45
2022/06/14 02:20:58;;;;;;;;;5.00;5.00;;;;;-143.57;100.00;65101.44;5097432;27;47077;-44
2022/06/14 02:23:25;;;;;;;;;3.00;3.00;;;;;-143.57;100.00;65101.44;5097927;27;45434;-43
2022/06/14 02:25:58;;;;;;;;;3.00;3.00;;;;;-143.57;100.00;65101.44;5098104;27;45383;-44
2022/06/14 02:29:06;;;;;;;;;3.00;3.00;;;;;-143.57;100.00;65101.44;5098154;27;45498;-44
2022/06/14 02:31:40;;;;;;;;;5.00;3.00;;;;;-143.57;100.00;65101.44;5014977;28;46389;-46
2022/06/14 02:34:12;;;;;;;;;6.00;3.00;;;;;-143.57;100.00;65101.44;5014717;28;45406;-49
2022/06/14 02:36:46;;;;;;;;;2.67;2.67;;;;;-143.57;100.00;65101.44;5014876;28;45346;-44
2022/06/14 02:39:17;;;;;;;;;4.00;3.33;;;;;-143.57;100.00;65101.44;5014986;28;45476;-46
2022/06/14 02:41:55;;;;;;;;;3.67;3.00;;;;;-143.57;100.00;65101.44;5014678;28;46202;-44
2022/06/14 02:44:27;;;;;;;;;7.00;4.00;;;;;-143.57;100.00;65101.44;5015304;28;45353;-43
2022/06/14 02:46:59;;;;;;;;;5.33;4.00;;;;;-143.57;100.00;65101.44;5015360;28;45390;-45
2022/06/14 02:49:29;;;;;;;;;3.33;3.33;;;;;-143.57;100.00;65101.44;5015425;28;45468;-45
2022/06/14 02:52:12;;;;;;;;;5.00;5.00;;;;;-143.57;100.00;65101.44;5014846;28;45440;-44
2022/06/14 02:55:01;;;;;;;;;3.00;3.00;;;;;-143.57;100.00;65101.44;5014844;28;45406;-43
2022/06/14 02:57:49;;;;;;;;;6.00;5.33;;;;;-143.57;100.00;65101.44;5000826;28;45483;-45
2022/06/14 03:00:19;;;;;;;;;3.33;3.33;;;;;-143.57;100.00;65101.44;5014815;28;45400;-47
2022/06/14 03:02:54;;;;;;;;;4.00;2.00;;;;;-143.57;100.00;65101.44;5015815;28;46171;-45
2022/06/14 03:05:37;;;;;;;;;3.00;3.00;;;;;-143.57;100.00;65101.44;5018006;28;45543;-44
2022/06/14 03:08:17;;;;;;;;;4.67;3.00;;;;;-143.57;100.00;65101.44;5039373;27;45429;-45
2022/06/14 03:11:07;;;;;;;;;3.67;3.00;;;;;-143.57;100.00;65101.44;5101660;27;45468;-44
2022/06/14 03:13:35;;;;;;;;;6.33;4.00;;;;;-143.57;100.00;65101.44;5100927;27;46018;-42
2022/06/14 03:16:03;;;;;;;;;4.00;4.00;;;;;-143.57;100.00;65101.44;5101084;27;45343;-49
2022/06/14 03:18:53;;;;;;;;;2.67;2.67;;;;;-143.57;100.00;65101.44;5101093;27;45412;-48
2022/06/14 03:21:37;;;;;;;;;4.00;4.00;;;;;-143.57;100.00;65101.44;5100996;27;45378;-44
2022/06/14 03:24:26;;;;;;;;;5.00;3.00;;;;;-143.57;100.00;65101.44;5100999;27;45542;-47
2022/06/14 03:27:00;;;;;;;;;3.00;3.00;;;;;-143.57;100.00;65101.44;5100880;27;45219;-45
2022/06/14 03:29:41;;;;;;;;;3.00;3.00;;;;;-143.57;100.00;65101.44;5101039;27;45299;-44
2022/06/14 03:32:17;;;;;;;;;3.67;3.67;;;;;-143.57;100.00;65101.44;5101378;27;45401;-44
2022/06/14 03:34:51;;;;;;;;;5.33;2.00;;;;;-143.57;100.00;65101.44;5100407;27;46911;-51
2022/06/14 03:37:17;;;;;;;;;3.00;3.00;;;;;-143.57;100.00;65101.44;5100342;27;45892;-48
2022/06/14 03:39:52;;;;;;;;;3.33;3.33;;;;;-143.57;100.00;65101.44;5100902;27;45381;-43
2022/06/14 03:42:18;;;;;;;;;4.00;3.00;;;;;-143.57;100.00;65101.44;5100992;27;45488;-47
2022/06/14 03:44:44;;;;;;;;;7.00;2.67;;;;;-143.57;100.00;65101.44;5100424;27;46136;-45
2022/06/14 03:47:09;;;;;;;;;3.00;3.00;;;;;-143.57;100.00;65101.44;5100405;27;45304;-44
2022/06/14 03:49:38;;;;;;;;;5.00;3.67;;;;;-143.57;100.00;65101.44;5100477;27;45409;-46
2022/06/14 03:52:42;;;;;;;;;4.33;4.33;;;;;-143.57;100.00;65101.44;5100772;27;45488;-43
2022/06/14 03:55:39;;;;;;;;;5.33;5.00;;;;;-143.57;100.00;65101.44;5017391;28;45456;-46
2022/06/14 03:58:24;;;;;;;;;5.33;5.33;;;;;-143.57;100.00;65101.44;5011484;28;45615;-46
2022/06/14 04:00:56;;;;;;;;;4.00;4.00;;;;;-143.57;100.00;65101.44;5017403;28;45409;-49
2022/06/14 04:03:52;;;;;;;;;5.00;4.00;;;;;-143.57;100.00;65101.44;5017280;28;45364;-46
2022/06/14 04:06:35;;;;;;;;;4.00;4.00;;;;;-143.57;100.00;65101.44;5016761;28;47361;-46
2022/06/14 04:09:39;;;;;;;;;4.00;3.33;;;;;-143.57;100.00;65101.44;5017117;28;45468;-46
2022/06/14 04:12:19;;;;;;;;;3.67;3.67;;;;;-143.57;100.00;65101.44;5006497;28;45353;-45
2022/06/14 04:14:50;;;;;;;;;7.33;3.00;;;;;-143.57;100.00;65101.44;5017305;28;45360;-45
2022/06/14 04:17:30;;;;;;;;;4.67;4.67;;;;;-143.57;100.00;65101.44;5016571;28;46010;-45
2022/06/14 04:20:01;;;;;;;;;5.00;4.00;;;;;-143.57;100.00;65101.44;5016272;28;45408;-44
2022/06/14 04:22:46;;;;;;;;;7.67;4.00;;;;;-143.57;100.00;65101.44;5017008;28;45291;-49
2022/06/14 04:25:18;;;;;;;;;3.33;3.00;;;;;-143.57;100.00;65101.44;5034940;27;45338;-43
2022/06/14 04:28:08;;;;;;;;;6.00;4.00;;;;;-143.57;100.00;65101.44;5099760;27;46280;-49
2022/06/14 04:30:48;;;;;;;;;4.00;4.00;;;;;-143.57;100.00;65101.44;5099791;27;45424;-44
2022/06/14 04:33:31;;;;;;;;;4.33;3.00;;;;;-143.57;100.00;65101.44;5099798;27;45378;-47
2022/06/14 04:36:08;;;;;;;;;4.33;4.00;;;;;-143.57;100.00;65101.44;5099828;27;45490;-43
2022/06/14 04:38:40;;;;;;;;;7.33;4.33;;;;;-143.57;100.00;65101.44;5099685;27;46060;-50
2022/06/14 04:41:12;;;;;;;;;4.00;4.00;;;;;-143.57;100.00;65101.44;5099813;27;45469;-48
2022/06/14 04:43:41;;;;;;;;;5.00;5.00;;;;;-143.57;100.00;65101.44;5099779;27;45254;-45
2022/06/14 04:46:10;;;;;;;;;4.67;4.00;;;;;-143.57;100.00;65101.44;5099611;27;45427;-47
2022/06/14 04:48:46;;;;;;;;;4.00;4.00;;;;;-143.57;100.00;65101.44;5099662;27;46263;-47
2022/06/14 04:51:33;;;;;;;;;4.00;4.00;;;;;-143.57;100.00;65101.44;5099519;27;45227;-46
2022/06/14 04:54:11;;;;;;;;;3.33;3.00;;;;;-143.57;100.00;65101.44;5099589;27;45557;-51
2022/06/14 04:56:44;;;;;;;;;3.00;3.00;;;;;-143.57;100.00;65101.44;5099726;27;45357;-44
2022/06/14 04:59:34;;;;;;;;;6.67;4.00;;;;;-143.57;100.00;65101.44;5081630;27;46301;-45
2022/06/14 05:02:11;;;;;;;;;2.67;2.67;;;;;-143.57;100.00;65101.44;5099382;27;45295;-44
2022/06/14 05:04:44;;;;;;;;;3.00;3.00;;;;;-143.57;100.00;65101.44;5099499;27;45307;-45
2022/06/14 05:07:21;;;;;;;;;7.00;5.00;;;;;-143.57;100.00;65101.44;5099503;27;45457;-44
2022/06/14 05:10:02;;;;;;;;;5.00;5.00;;;;;-143.57;100.00;65101.44;5098413;27;45312;-45
2022/06/14 05:13:03;;;;;;;;;4.00;4.00;;;;;-143.57;100.00;65101.44;5098635;27;45538;-44
2022/06/14 05:15:32;;;;;;;;;4.67;4.67;;;;;-143.57;100.00;65101.44;5099335;27;45413;-51
2022/06/14 05:18:07;;;;;;;;;5.33;3.00;;;;;-143.57;100.00;65101.44;5099281;27;45383;-51
2022/06/14 05:20:53;;;;;;;;;3.00;3.00;;;;;-143.57;100.00;65101.44;5098559;27;46800;-47
2022/06/14 05:23:22;;;;;;;;;4.67;4.00;;;;;-143.57;100.00;65101.44;5098835;27;45225;-47
2022/06/14 05:26:20;;;;;;;;;5.67;4.00;;;;;-143.57;100.00;65101.44;5079934;27;45315;-45
2022/06/14 05:29:12;;;;;;;;;7.00;4.00;;;;;-143.57;100.00;65101.44;5099119;27;45403;-44
2022/06/14 05:31:41;;;;;;;;;6.33;5.67;;;;;-143.57;100.00;65101.44;5098577;27;45458;-44
2022/06/14 05:34:26;;;;;;;;;4.00;4.00;;;;;-143.57;100.00;65101.44;5099068;27;45413;-44
2022/06/14 05:37:00;;;;;;;;;6.00;6.00;;;;;-143.57;100.00;65101.44;5098979;27;45544;-48
2022/06/14 05:39:43;;;;;;;;;5.33;5.00;;;;;-143.57;100.00;65101.44;5099044;27;45289;-44
2022/06/14 05:42:18;;;;;;;;;5.33;5.33;;;;;-143.57;100.00;65101.44;5098491;27;45597;-42
2022/06/14 05:44:57;;;;;;;;;5.00;5.00;;;;;-143.57;100.00;65101.44;5098622;27;45317;-45
2022/06/14 05:47:33;;;;;;;;;4.33;4.00;;;;;-143.57;100.00;65101.44;5098754;27;45352;-51
2022/06/14 05:50:04;;;;;;;;;4.00;4.00;;;;;-143.57;100.00;65101.44;5098635;27;45209;-45
2022/06/14 05:52:40;;;;;;;;;6.00;5.00;;;;;-143.57;100.00;65101.44;5098285;27;45582;-45
2022/06/14 05:55:28;;;;;;;;;5.00;4.00;;;;;-143.57;100.00;65101.44;5098351;27;45481;-42
2022/06/14 05:57:59;;;;;;;;;4.00;4.00;;;;;-143.57;100.00;65101.44;5098567;27;45319;-42
2022/06/14 06:00:31;;;;;;;;;7.00;4.67;;;;;-143.57;100.00;65101.44;5098629;27;45397;-45
2022/06/14 06:03:14;;;;;;;;;5.00;4.67;;;;;-143.57;100.00;65101.44;5098186;27;45377;-52
2022/06/14 06:05:45;;;;;;;;;7.33;5.00;;;;;-143.57;100.00;65101.44;5097864;27;45437;-45
2022/06/14 06:08:28;;;;;;;;;5.00;4.67;;;;;-143.57;100.00;65101.44;5098264;27;45365;-44
2022/06/14 06:10:58;;;;;;;;;5.67;3.00;;;;;-143.57;100.00;65101.44;5098380;27;45480;-45
2022/06/14 06:13:40;;;;;;;;;5.33;5.33;;;;;-143.57;100.00;65101.44;5097825;27;45438;-44
2022/06/14 06:16:12;;;;;;;;;4.67;4.00;;;;;-143.57;100.00;65101.44;5097387;27;45430;-44
2022/06/14 06:18:44;;;;;;;;;6.00;4.67;;;;;-143.57;100.00;65101.44;5097850;27;45366;-44
2022/06/14 06:21:41;;;;;;;;;5.00;5.00;;;;;-143.57;100.00;65101.44;5098103;27;45413;-43
2022/06/14 06:24:21;;;;;;;;;4.33;4.33;;;;;-143.57;100.00;65101.44;5097773;27;45305;-48
2022/06/14 06:26:55;;;;;;;;;5.00;5.00;;;;;-143.57;100.00;65101.44;5097699;27;45429;-47
2022/06/14 06:29:28;;;;;;;;;7.00;4.00;;;;;-143.57;100.00;65101.44;5097351;27;45473;-45
2022/06/14 06:31:54;;;;;;;;;4.00;4.00;;;;;-143.57;100.00;65101.44;5098140;27;45404;-44
2022/06/14 06:34:20;;;;;;;;;4.00;4.00;;;;;-143.57;100.00;65101.44;5097796;27;46231;-44
2022/06/14 06:37:10;;;;;;;;;4.67;4.67;;;;;-143.57;100.00;65101.44;5096443;27;45456;-44
2022/06/14 06:39:55;;;;;;;;;4.33;4.33;;;;;-143.57;100.00;65101.44;5098025;27;45257;-44
2022/06/14 06:42:35;;;;;;;;;4.00;4.00;;;;;-143.57;100.00;65101.44;5098095;27;45226;-47
2022/06/14 06:45:07;;;;;;;;;4.75;2.75;;;;;-143.57;100.00;65101.44;5097643;27;46310;-46
2022/06/14 06:47:44;;;;;;;;;6.75;6.75;;;;;-143.57;100.00;65101.44;5097611;27;45310;-48
2022/06/14 06:50:24;;;;;;;;;4.75;4.00;;;;;-143.57;100.00;65101.44;5097783;27;45539;-44
2022/06/14 06:53:02;;;;;;;;;4.75;4.00;;;;;-143.57;100.00;65101.44;5098078;27;45238;-44
2022/06/14 06:56:08;;;;;;;;;4.25;4.00;;;;;-143.57;100.00;65101.44;5097561;27;46161;-46
2022/06/14 06:58:41;;;;;;;;;4.20;3.80;;;;;-143.57;100.00;65101.44;5097603;27;45319;-49
2022/06/14 07:01:13;;;;;;;;;4.40;3.20;;;;;-143.57;100.00;65101.44;5097481;27;45389;-51
2022/06/14 07:03:41;;;;;;;;;5.20;4.00;;;;;-143.57;100.00;65101.44;5097841;27;45386;-47
2022/06/14 07:06:19;;;;;;;;;5.00;4.80;;;;;-143.57;100.00;65101.44;5097571;27;46133;-49
2022/06/14 07:08:56;;;;;;;;;4.00;4.00;;;;;-143.57;100.00;65101.44;5097535;27;45294;-45
2022/06/14 07:11:31;;;;;;;;;4.40;4.00;;;;;-143.57;100.00;65101.44;5097409;27;45516;-45
2022/06/14 07:14:04;;;;;;;;;4.40;4.40;;;;;-143.57;100.00;65101.44;5097782;27;45479;-47
2022/06/14 07:16:39;;;;;;;;;7.20;4.40;;;;;-143.57;100.00;65101.44;5097272;27;46164;-46
2022/06/14 07:19:22;;;;;;;;;4.00;4.00;;;;;-143.57;100.00;65101.44;5097307;27;45359;-52
2022/06/14 07:22:13;;;;;;;;;3.40;3.00;;;;;-143.57;100.00;65101.44;5097516;27;45190;-49
2022/06/14 07:25:00;;;;;;;;;3.00;3.00;;;;;-143.57;100.00;65101.44;5097666;27;45604;-44
2022/06/14 07:27:31;;;;;;;;;4.00;4.00;;;;;-143.57;100.00;65101.44;5097114;27;46436;-44
2022/06/14 07:30:09;;;;;;;;;4.00;4.00;;;;;-143.57;100.00;65101.44;5097232;27;45298;-48
2022/06/14 07:32:43;;;;;;;;;3.20;3.20;;;;;-143.57;100.00;65101.44;5097327;27;45329;-46
2022/06/14 07:35:09;;;;;;;;;3.20;3.20;;;;;-143.57;100.00;65101.44;5097474;27;45252;-50
2022/06/14 07:37:43;;;;;;;;;3.25;3.25;;;;;-143.57;100.00;65101.44;5097065;27;45247;-48
2022/06/14 07:40:08;;;;;;;;;2.20;2.00;;;;;-143.57;100.00;65101.44;5097172;27;45359;-44
2022/06/14 07:42:44;;;;;;;;;4.75;2.75;;;;;-143.57;100.00;65101.44;5097317;27;45319;-46
2022/06/14 07:45:21;;;;;;;;;4.60;4.60;;;;;-143.57;100.00;65101.44;5097397;27;45374;-44
2022/06/14 07:47:56;;;;;;;;;4.00;2.60;;;;;-143.57;100.00;65101.44;5097290;27;46024;-50
2022/06/14 07:50:38;;;;;;;;;3.20;3.20;;;;;-143.57;100.00;65101.44;5099446;27;45414;-45
2022/06/14 07:53:16;;;;;;;;;3.80;2.00;;;;;-143.57;100.00;65101.44;5100228;27;45338;-49
2022/06/14 07:55:51;;;;;;;;;5.00;4.00;;;;;-143.57;100.00;65101.44;5100550;27;45389;-47
2022/06/14 07:58:24;;;;;;;;;3.20;3.20;;;;;-143.57;100.00;65101.44;5100194;27;46131;-49
2022/06/14 08:01:07;;;;;;;;;4.60;4.60;;;;;-143.57;100.00;65101.44;5100553;27;45458;-46
2022/06/14 08:03:41;;;;;;;;;4.80;4.80;;;;;-143.57;100.00;65101.44;5100474;27;45335;-45
2022/06/14 08:06:15;;;;;;;;;3.40;3.40;;;;;-143.57;100.00;65101.44;5100590;27;45256;-45
2022/06/14 08:08:43;;;;;;;;;4.40;3.00;;;;;-143.57;100.00;65101.44;5099967;27;45315;-49
2022/06/14 08:11:17;;;;;;;;;5.20;3.20;;;;;-143.57;100.00;65101.44;5099177;27;45387;-44
2022/06/14 08:13:53;;;;;;;;;3.00;3.00;;;;;-143.57;100.00;65101.44;5100299;27;45268;-44
2022/06/14 08:16:21;;;;;;;;;6.40;3.00;;;;;-143.57;100.00;65101.44;5100268;27;45374;-47
2022/06/14 08:18:54;;;;;;;;;3.00;3.00;;;;;-143.57;100.00;65101.44;5081214;27;46698;-47
2022/06/14 08:21:41;;;;;;;;;4.40;3.00;;;;;-143.57;100.00;65101.44;5099935;27;45254;-44
2022/06/14 08:24:20;;;;;;;;;3.60;3.40;;;;;-143.57;100.00;65101.44;5100107;27;45236;-47
2022/06/14 08:26:56;;;;;;;;;6.00;5.20;;;;;-143.57;100.00;65101.44;5100177;27;45344;-47
2022/06/14 08:29:35;;;;;;;;;7.00;3.20;;;;;-143.57;100.00;65101.44;5099709;27;46194;-47
2022/06/14 08:32:25;;;;;;;;;4.00;4.00;;;;;-143.57;100.00;65101.44;5099983;27;45288;-52
2022/06/14 08:35:13;;;;;;;;;3.80;3.80;;;;;-143.57;100.00;65101.44;5099938;27;45335;-46
2022/06/14 08:37:49;;;;;;;;;2.60;2.60;;;;;-143.57;100.00;65101.44;5099758;27;45362;-47
2022/06/14 08:40:38;;;;;;;;;3.40;3.40;;;;;-143.57;100.00;65101.44;5099878;27;46300;-53
2022/06/14 08:43:08;;;;;;;;;4.00;4.00;;;;;-143.57;100.00;65101.44;5099681;27;45368;-47
2022/06/14 08:45:39;;;;;;;;;3.80;2.60;;;;;-143.57;100.00;65101.44;5099740;27;45451;-50
2022/06/14 08:48:07;;;;;;;;;3.60;3.40;;;;;-143.57;100.00;65101.44;5099891;27;45289;-44
2022/06/14 08:50:57;;;;;;;;;4.40;4.00;;;;;-143.57;100.00;65101.44;5099666;27;46523;-48
2022/06/14 08:53:45;;;;;;;;;3.00;3.00;;;;;-143.57;100.00;65101.44;5099636;27;45378;-45
2022/06/14 08:56:16;;;;;;;;;3.60;3.00;;;;;-143.57;100.00;65101.44;5099750;27;45397;-48
2022/06/14 08:58:55;;;;;;;;;4.00;3.80;;;;;-143.57;100.00;65101.44;5099815;27;45310;-48
2022/06/14 09:01:48;;;;;;;;;3.20;3.20;;;;;-143.57;100.00;65101.44;5098554;27;45434;-47
2022/06/14 09:04:58;;;;;;;;;6.00;4.80;;;;;-143.57;100.00;65101.44;5099298;27;45354;-48
2022/06/14 09:08:01;;;;;;;;;6.40;4.00;;;;;-143.57;100.00;65101.44;5015865;28;45534;-50
2022/06/14 09:11:00;;;;;;;;;6.00;4.20;;;;;-143.57;100.00;65101.44;5016428;28;45345;-45
2022/06/14 09:13:26;;;;;;;;;5.40;4.60;;;;;-143.57;100.00;65101.44;5016058;28;45650;-51
2022/06/14 09:16:06;;;;;;;;;6.50;3.50;;;;;-143.57;100.00;65101.44;5016201;28;45388;-46
2022/06/14 09:18:53;;;;;;;;;3.60;3.00;;;;;-143.57;100.00;65101.44;5016231;28;45581;-51
2022/06/14 09:21:24;;;;;;;;;4.00;4.00;;;;;-143.57;100.00;65101.44;5016351;28;45509;-52
2022/06/14 09:24:08;;;;;;;;;5.80;4.20;;;;;-143.57;100.00;65101.44;5015928;28;45563;-47
2022/06/14 09:27:01;;;;;;;;;4.00;3.20;;;;;-143.57;100.00;65101.44;5016212;28;45520;-47
2022/06/14 09:29:49;;;;;;;;;3.60;3.60;;;;;-143.57;100.00;65101.44;5016293;28;45333;-51
2022/06/14 09:35:34;;;;;;;;;3.20;3.20;;;;;-143.57;100.00;65101.44;5015916;28;45512;-47
2022/06/14 09:38:21;;;;;;;;;2.50;2.50;;;;;-143.57;100.00;65101.44;5015643;28;45308;-45
2022/06/14 09:40:59;;;;;;;;;5.40;3.80;;;;;-143.57;100.00;65101.44;5016052;28;45440;-51
2022/06/14 09:43:55;;;;;;;;;3.60;3.60;;;;;-143.57;100.00;65101.44;5038877;27;45611;-45
2022/06/14 09:46:29;;;;;;;;;4.20;3.20;;;;;-143.57;100.00;65101.44;5098575;27;46391;-45
2022/06/14 09:49:22;;;;;;;;;3.20;3.20;;;;;-143.57;100.00;65101.44;5098536;27;45505;-54
2022/06/14 09:52:12;;;;;;;;;6.20;4.60;;;;;-143.57;100.00;65101.44;5098729;27;45301;-45
2022/06/14 09:55:15;;;;;;;;;4.80;3.80;;;;;-143.57;100.00;65101.44;5098758;27;45536;-50
2022/06/14 09:58:33;;;;;;;;;5.00;3.80;;;;;-143.57;100.00;65101.44;5098554;27;46086;-50
2022/06/14 10:01:18;;;;;;;;;5.80;4.20;;;;;-143.57;100.00;65101.44;5015522;28;45465;-54
2022/06/14 10:04:05;;;;;;;;;3.00;3.00;;;;;-143.57;100.00;65101.44;5015755;28;45449;-53
2022/06/14 10:06:37;;;;;;;;;6.40;4.80;;;;;-143.57;100.00;65101.44;5015763;28;45465;-52
2022/06/14 10:09:13;;;;;;;;;3.40;3.00;;;;;-143.57;100.00;65101.44;5015160;28;46319;-53
2022/06/14 10:12:04;;;;;;;;;4.60;4.20;;;;;-143.57;100.00;65101.44;5015103;28;45452;-52
2022/06/14 10:14:44;;;;;;;;;5.00;4.40;;;;;-143.57;100.00;65101.44;5015458;28;45447;-46
2022/06/14 10:17:45;;;;;;;;;4.80;4.40;;;;;-143.57;100.00;65101.44;5015695;28;45595;-47
2022/06/14 10:20:32;;;;;;;;;6.60;4.00;;;;;-143.57;100.00;65101.44;5015279;28;46369;-47
2022/06/14 10:23:06;;;;;;;;;5.00;3.80;;;;;-143.57;100.00;65101.44;5015071;28;45646;-49
2022/06/14 10:25:37;;;;;;;;;4.80;3.60;;;;;-143.57;100.00;65101.44;5015446;28;45445;-52
2022/06/14 10:28:31;;;;;;;;;5.00;5.00;;;;;-143.57;100.00;65101.44;5015460;28;45440;-53
2022/06/14 10:31:16;;;;;;;;;5.00;5.00;;;;;-143.57;100.00;65101.44;5014967;28;45340;-45
2022/06/14 10:34:29;;;;;;;;;4.60;4.60;;;;;-143.57;100.00;65101.44;5022106;27;45435;-46
2022/06/14 10:37:25;;;;;;;;;6.60;4.80;;;;;-143.57;100.00;65101.44;5015082;28;45406;-45
2022/06/14 10:40:07;;;;;;;;;6.40;5.40;;;;;-143.57;100.00;65101.44;5015063;28;45424;-49
2022/06/14 10:42:39;;;;;;;;;5.00;4.60;;;;;-143.57;100.00;65101.44;5015021;28;45508;-50
2022/06/14 10:45:14;;;;;;;;;3.80;2.80;;;;;-143.57;100.00;65101.44;5015168;28;45710;-47
2022/06/14 10:47:55;;;;;;;;;5.80;4.40;;;;;-143.57;100.00;65101.44;5015051;28;45516;-46
2022/06/14 10:50:32;;;;;;;;;5.20;5.20;;;;;-143.57;100.00;65101.44;5015320;28;45307;-45
2022/06/14 10:53:25;;;;;;;;;4.20;4.20;;;;;-143.57;100.00;65101.44;5014568;28;45769;-47
2022/06/14 10:56:18;;;;;;;;;3.60;3.60;;;;;-143.57;100.00;65101.44;5014842;28;45325;-45
2022/06/14 10:59:11;;;;;;;;;6.20;5.00;;;;;-143.57;100.00;65101.44;4955407;28;45370;-48
2022/06/14 11:01:44;;;;;;;;;7.00;5.60;;;;;-143.57;100.00;65101.44;4955984;28;45479;-44
2022/06/14 11:04:15;;;;;;;;;6.40;5.80;;;;;-143.57;100.00;65101.44;4955553;28;45417;-48
2022/06/14 11:07:01;;;;;;;;;7.60;7.00;;;;;-143.57;100.00;65101.44;4955887;28;45377;-49
2022/06/14 11:09:44;;;;;;;;;7.20;6.20;;;;;-143.57;100.00;65101.44;4955508;28;45525;-45
2022/06/14 11:12:46;;;;;;;;;6.60;6.20;;;;;-143.57;100.00;65101.44;4990794;28;45336;-45
2022/06/14 11:15:32;;;;;;;;;6.00;5.00;;;;;-143.57;100.00;65101.44;5034042;28;46299;-47
2022/06/14 11:18:28;;;;;;;;;4.80;4.40;;;;;-143.57;100.00;65101.44;5017558;28;45440;-44
2022/06/14 11:21:18;;;;;;;;;3.80;3.80;;;;;-143.57;100.00;65101.44;5034350;28;45478;-47
2022/06/14 11:24:11;;;;;;;;;9.40;8.00;;;;;-143.57;100.00;65101.44;5036005;28;45502;-45
2022/06/14 11:27:10;;;;;;;;;4.20;4.20;;;;;-143.57;100.00;65101.44;5037609;28;46193;-49
2022/06/14 11:30:00;;;;;;;;;4.60;4.60;;;;;-143.57;100.00;65101.44;5037434;28;45382;-48
2022/06/14 11:33:01;;;;;;;;;6.00;5.80;;;;;-143.57;100.00;65101.44;5037641;28;45401;-48
2022/06/14 11:35:55;;;;;;;;;6.40;5.80;;;;;-143.57;100.00;65101.44;5065983;27;45338;-44
2022/06/14 11:39:08;;;;;;;;;6.00;5.20;;;;;-143.57;100.00;65101.44;5100653;27;46100;-51
2022/06/14 11:41:39;;;;;;;;;7.20;5.60;;;;;-143.57;100.00;65101.44;5096486;27;45436;-44
2022/06/14 11:44:33;;;;;;;;;9.80;6.20;;;;;-143.57;100.00;65101.44;5100683;27;45262;-45
2022/06/14 11:47:26;;;;;;;;;6.60;5.00;;;;;-143.57;100.00;65101.44;5100282;27;45410;-55
2022/06/14 11:50:01;;;;;;;;;5.40;5.40;;;;;-143.57;100.00;65101.44;5099387;27;45431;-44
2022/06/14 11:52:41;;;;;;;;;10.00;7.00;;;;;-143.57;100.00;65101.44;5100388;27;45431;-49
2022/06/14 11:55:34;;;;;;;;;6.60;5.40;;;;;-143.57;100.00;65101.44;5100430;27;45353;-50
2022/06/14 11:58:17;;;;;;;;;7.00;5.80;;;;;-143.57;100.00;65101.44;5100630;27;45350;-45
2022/06/14 12:00:42;;;;;;;;;6.40;6.00;;;;;-143.57;100.00;65101.44;5100228;27;46195;-48
2022/06/14 12:03:25;;;;;;;;;7.00;5.00;;;;;-143.57;100.00;65101.44;5100129;27;45364;-49
2022/06/14 12:06:00;;;;;;;;;6.60;5.20;;;;;-143.57;100.00;65101.44;5100294;27;45453;-52
2022/06/14 12:09:13;;;;;;;;;8.60;6.20;;;;;-143.57;100.00;65101.44;5100569;27;45377;-44
2022/06/14 12:11:46;;;;;;;;;6.80;6.80;;;;;-143.57;100.00;65101.44;5016930;28;46186;-46
2022/06/14 12:14:39;;;;;;;;;8.80;5.20;;;;;-143.57;100.00;65101.44;5017135;28;45215;-43